sensor_id;sensor_type;location;lat;lon;timestamp;temperature;humidity
4245;DHT22;2136;48.502;9.194;2023-02-02T00:01:10;6.30;73.90
4245;DHT22;2136;48.502;9.194;2023-02-02T00:03:37;6.30;73.50
4245;DHT22;2136;48.502;9.194;2023-02-02T00:06:06;6.30;73.50
4245;DHT22;2136;48.502;9.194;2023-02-02T00:08:33;6.30;73.50
4245;DHT22;2136;48.502;9.194;2023-02-02T00:11:04;6.20;73.50
4245;DHT22;2136;48.502;9.194;2023-02-02T00:13:31;6.20;73.80
4245;DHT22;2136;48.502;9.194;2023-02-02T00:16:17;6.20;74.00
4245;DHT22;2136;48.502;9.194;2023-02-02T00:18:43;6.20;73.90
4245;DHT22;2136;48.502;9.194;2023-02-02T00:21:12;6.20;73.80
4245;DHT22;2136;48.502;9.194;2023-02-02T00:23:38;6.30;73.90
4245;DHT22;2136;48.502;9.194;2023-02-02T00:26:05;6.30;74.10
4245;DHT22;2136;48.502;9.194;2023-02-02T00:28:32;6.30;74.10
4245;DHT22;2136;48.502;9.194;2023-02-02T00:30:59;6.30;73.80
4245;DHT22;2136;48.502;9.194;2023-02-02T00:33:26;6.30;73.90
4245;DHT22;2136;48.502;9.194;2023-02-02T00:35:53;6.30;74.20
4245;DHT22;2136;48.502;9.194;2023-02-02T00:38:21;6.40;74.30
4245;DHT22;2136;48.502;9.194;2023-02-02T00:40:48;6.30;74.30
4245;DHT22;2136;48.502;9.194;2023-02-02T00:43:14;6.30;74.30
4245;DHT22;2136;48.502;9.194;2023-02-02T00:45:41;6.30;74.40
4245;DHT22;2136;48.502;9.194;2023-02-02T00:48:07;6.30;74.60
4245;DHT22;2136;48.502;9.194;2023-02-02T00:50:35;6.20;74.50
4245;DHT22;2136;48.502;9.194;2023-02-02T00:53:02;6.30;74.90
4245;DHT22;2136;48.502;9.194;2023-02-02T00:55:30;6.20;74.90
4245;DHT22;2136;48.502;9.194;2023-02-02T00:57:57;6.20;74.80
4245;DHT22;2136;48.502;9.194;2023-02-02T01:00:25;6.20;75.40
4245;DHT22;2136;48.502;9.194;2023-02-02T01:02:53;6.20;76.00
4245;DHT22;2136;48.502;9.194;2023-02-02T01:05:20;6.20;75.90
4245;DHT22;2136;48.502;9.194;2023-02-02T01:07:47;6.20;75.60
4245;DHT22;2136;48.502;9.194;2023-02-02T01:10:16;6.20;75.20
4245;DHT22;2136;48.502;9.194;2023-02-02T01:12:44;6.30;76.40
4245;DHT22;2136;48.502;9.194;2023-02-02T01:15:11;6.30;75.00
4245;DHT22;2136;48.502;9.194;2023-02-02T01:17:38;6.20;74.80
4245;DHT22;2136;48.502;9.194;2023-02-02T01:20:07;6.30;74.90
4245;DHT22;2136;48.502;9.194;2023-02-02T01:22:34;6.30;74.70
4245;DHT22;2136;48.502;9.194;2023-02-02T01:25:03;6.20;74.30
4245;DHT22;2136;48.502;9.194;2023-02-02T01:27:30;6.20;74.80
4245;DHT22;2136;48.502;9.194;2023-02-02T01:29:59;6.20;74.40
4245;DHT22;2136;48.502;9.194;2023-02-02T01:32:25;6.20;74.80
4245;DHT22;2136;48.502;9.194;2023-02-02T01:34:52;6.20;74.90
4245;DHT22;2136;48.502;9.194;2023-02-02T01:37:19;6.20;74.90
4245;DHT22;2136;48.502;9.194;2023-02-02T01:39:46;6.20;75.50
4245;DHT22;2136;48.502;9.194;2023-02-02T01:42:15;6.20;75.80
4245;DHT22;2136;48.502;9.194;2023-02-02T01:45:16;6.20;76.40
4245;DHT22;2136;48.502;9.194;2023-02-02T01:47:47;6.20;77.70
4245;DHT22;2136;48.502;9.194;2023-02-02T01:50:16;6.20;78.00
4245;DHT22;2136;48.502;9.194;2023-02-02T01:52:46;6.20;78.00
4245;DHT22;2136;48.502;9.194;2023-02-02T01:55:17;6.30;78.60
4245;DHT22;2136;48.502;9.194;2023-02-02T01:57:48;6.40;78.70
4245;DHT22;2136;48.502;9.194;2023-02-02T02:00:19;6.20;80.20
4245;DHT22;2136;48.502;9.194;2023-02-02T02:02:51;6.30;81.40
4245;DHT22;2136;48.502;9.194;2023-02-02T02:05:29;6.20;82.80
4245;DHT22;2136;48.502;9.194;2023-02-02T02:08:14;6.20;82.10
4245;DHT22;2136;48.502;9.194;2023-02-02T02:10:47;6.20;82.20
4245;DHT22;2136;48.502;9.194;2023-02-02T02:13:15;6.20;81.90
4245;DHT22;2136;48.502;9.194;2023-02-02T02:15:51;6.20;81.90
4245;DHT22;2136;48.502;9.194;2023-02-02T02:18:44;6.10;81.70
4245;DHT22;2136;48.502;9.194;2023-02-02T02:21:38;6.10;82.10
4245;DHT22;2136;48.502;9.194;2023-02-02T02:34:06;6.10;81.50
4245;DHT22;2136;48.502;9.194;2023-02-02T02:36:42;6.00;81.60
4245;DHT22;2136;48.502;9.194;2023-02-02T02:39:19;6.10;82.00
4245;DHT22;2136;48.502;9.194;2023-02-02T02:41:55;6.10;81.80
4245;DHT22;2136;48.502;9.194;2023-02-02T02:44:25;6.10;81.10
4245;DHT22;2136;48.502;9.194;2023-02-02T02:46:54;6.10;81.20
4245;DHT22;2136;48.502;9.194;2023-02-02T02:49:22;6.10;81.20
4245;DHT22;2136;48.502;9.194;2023-02-02T02:51:50;6.10;80.90
4245;DHT22;2136;48.502;9.194;2023-02-02T02:54:20;6.10;81.20
4245;DHT22;2136;48.502;9.194;2023-02-02T02:57:03;6.10;81.40
4245;DHT22;2136;48.502;9.194;2023-02-02T02:59:38;6.10;81.40
4245;DHT22;2136;48.502;9.194;2023-02-02T03:02:21;6.20;81.20
4245;DHT22;2136;48.502;9.194;2023-02-02T03:05:03;6.20;80.90
4245;DHT22;2136;48.502;9.194;2023-02-02T03:07:36;6.30;80.90
4245;DHT22;2136;48.502;9.194;2023-02-02T03:10:05;6.20;80.40
4245;DHT22;2136;48.502;9.194;2023-02-02T03:12:33;6.30;80.40
4245;DHT22;2136;48.502;9.194;2023-02-02T03:15:04;6.30;79.80
4245;DHT22;2136;48.502;9.194;2023-02-02T03:17:31;6.30;80.00
4245;DHT22;2136;48.502;9.194;2023-02-02T03:19:59;6.30;80.00
4245;DHT22;2136;48.502;9.194;2023-02-02T03:22:26;6.30;80.00
4245;DHT22;2136;48.502;9.194;2023-02-02T03:24:52;6.30;79.60
4245;DHT22;2136;48.502;9.194;2023-02-02T03:27:21;6.30;79.40
4245;DHT22;2136;48.502;9.194;2023-02-02T03:29:48;6.20;79.30
4245;DHT22;2136;48.502;9.194;2023-02-02T03:32:15;6.30;79.60
4245;DHT22;2136;48.502;9.194;2023-02-02T03:34:41;6.30;79.80
4245;DHT22;2136;48.502;9.194;2023-02-02T03:37:10;6.30;79.70
4245;DHT22;2136;48.502;9.194;2023-02-02T03:39:36;6.30;79.50
4245;DHT22;2136;48.502;9.194;2023-02-02T03:42:03;6.30;79.60
4245;DHT22;2136;48.502;9.194;2023-02-02T03:44:30;6.30;79.50
4245;DHT22;2136;48.502;9.194;2023-02-02T03:46:57;6.30;79.00
4245;DHT22;2136;48.502;9.194;2023-02-02T03:49:24;6.20;79.30
4245;DHT22;2136;48.502;9.194;2023-02-02T03:51:51;6.20;79.60
4245;DHT22;2136;48.502;9.194;2023-02-02T03:54:19;6.20;80.30
4245;DHT22;2136;48.502;9.194;2023-02-02T03:56:45;6.20;80.20
4245;DHT22;2136;48.502;9.194;2023-02-02T03:59:12;6.30;80.20
4245;DHT22;2136;48.502;9.194;2023-02-02T04:01:39;6.20;80.20
4245;DHT22;2136;48.502;9.194;2023-02-02T04:04:06;6.30;80.50
4245;DHT22;2136;48.502;9.194;2023-02-02T04:06:33;6.30;80.30
4245;DHT22;2136;48.502;9.194;2023-02-02T04:08:59;6.30;80.00
4245;DHT22;2136;48.502;9.194;2023-02-02T04:11:27;6.30;79.90
4245;DHT22;2136;48.502;9.194;2023-02-02T04:13:54;6.30;80.00
4245;DHT22;2136;48.502;9.194;2023-02-02T04:16:21;6.20;80.00
4245;DHT22;2136;48.502;9.194;2023-02-02T04:18:48;6.30;80.10
4245;DHT22;2136;48.502;9.194;2023-02-02T04:21:15;6.30;80.60
4245;DHT22;2136;48.502;9.194;2023-02-02T04:23:42;6.30;80.30
4245;DHT22;2136;48.502;9.194;2023-02-02T04:26:09;6.30;80.20
4245;DHT22;2136;48.502;9.194;2023-02-02T04:28:37;6.30;79.40
4245;DHT22;2136;48.502;9.194;2023-02-02T04:31:04;6.30;79.60
4245;DHT22;2136;48.502;9.194;2023-02-02T04:33:30;6.40;79.70
4245;DHT22;2136;48.502;9.194;2023-02-02T04:35:59;6.40;79.50
4245;DHT22;2136;48.502;9.194;2023-02-02T04:38:26;6.40;79.60
4245;DHT22;2136;48.502;9.194;2023-02-02T04:40:53;6.30;79.60
4245;DHT22;2136;48.502;9.194;2023-02-02T04:43:19;6.30;79.80
4245;DHT22;2136;48.502;9.194;2023-02-02T04:45:53;6.40;80.10
4245;DHT22;2136;48.502;9.194;2023-02-02T04:48:20;6.40;80.30
4245;DHT22;2136;48.502;9.194;2023-02-02T04:50:47;6.40;79.60
4245;DHT22;2136;48.502;9.194;2023-02-02T04:53:14;6.30;79.70
4245;DHT22;2136;48.502;9.194;2023-02-02T04:55:40;6.40;79.90
4245;DHT22;2136;48.502;9.194;2023-02-02T04:58:07;6.30;79.80
4245;DHT22;2136;48.502;9.194;2023-02-02T05:00:34;6.30;80.30
4245;DHT22;2136;48.502;9.194;2023-02-02T05:03:02;6.30;80.30
4245;DHT22;2136;48.502;9.194;2023-02-02T05:05:29;6.30;80.10
4245;DHT22;2136;48.502;9.194;2023-02-02T05:07:56;6.30;80.20
4245;DHT22;2136;48.502;9.194;2023-02-02T05:10:24;6.30;81.60
4245;DHT22;2136;48.502;9.194;2023-02-02T05:12:51;6.30;80.90
4245;DHT22;2136;48.502;9.194;2023-02-02T05:15:18;6.30;80.90
4245;DHT22;2136;48.502;9.194;2023-02-02T05:17:46;6.30;81.00
4245;DHT22;2136;48.502;9.194;2023-02-02T05:20:14;6.30;81.00
4245;DHT22;2136;48.502;9.194;2023-02-02T05:22:42;6.40;81.00
4245;DHT22;2136;48.502;9.194;2023-02-02T05:25:09;6.40;80.30
4245;DHT22;2136;48.502;9.194;2023-02-02T05:27:35;6.30;80.20
4245;DHT22;2136;48.502;9.194;2023-02-02T05:30:03;6.30;80.60
4245;DHT22;2136;48.502;9.194;2023-02-02T05:32:30;6.40;81.10
4245;DHT22;2136;48.502;9.194;2023-02-02T05:34:57;6.40;80.50
4245;DHT22;2136;48.502;9.194;2023-02-02T05:37:25;6.40;80.30
4245;DHT22;2136;48.502;9.194;2023-02-02T05:39:52;6.50;80.60
4245;DHT22;2136;48.502;9.194;2023-02-02T05:42:18;6.50;79.90
4245;DHT22;2136;48.502;9.194;2023-02-02T05:44:45;6.40;79.90
4245;DHT22;2136;48.502;9.194;2023-02-02T05:47:12;6.50;80.10
4245;DHT22;2136;48.502;9.194;2023-02-02T05:49:39;6.50;80.50
4245;DHT22;2136;48.502;9.194;2023-02-02T05:52:06;6.50;80.30
4245;DHT22;2136;48.502;9.194;2023-02-02T05:54:35;6.50;79.80
4245;DHT22;2136;48.502;9.194;2023-02-02T05:57:01;6.50;79.70
4245;DHT22;2136;48.502;9.194;2023-02-02T05:59:28;6.60;79.60
4245;DHT22;2136;48.502;9.194;2023-02-02T06:01:55;6.60;79.50
4245;DHT22;2136;48.502;9.194;2023-02-02T06:04:22;6.60;79.60
4245;DHT22;2136;48.502;9.194;2023-02-02T06:06:49;6.60;79.50
4245;DHT22;2136;48.502;9.194;2023-02-02T06:09:15;6.60;79.80
4245;DHT22;2136;48.502;9.194;2023-02-02T06:11:44;6.60;79.90
4245;DHT22;2136;48.502;9.194;2023-02-02T06:14:11;6.50;80.10
4245;DHT22;2136;48.502;9.194;2023-02-02T06:16:38;6.40;80.40
4245;DHT22;2136;48.502;9.194;2023-02-02T06:19:05;6.50;81.10
4245;DHT22;2136;48.502;9.194;2023-02-02T06:21:32;6.50;81.30
4245;DHT22;2136;48.502;9.194;2023-02-02T06:23:59;6.50;81.60
4245;DHT22;2136;48.502;9.194;2023-02-02T06:26:26;6.60;81.90
4245;DHT22;2136;48.502;9.194;2023-02-02T06:28:55;6.70;82.30
4245;DHT22;2136;48.502;9.194;2023-02-02T06:31:22;6.50;82.70
4245;DHT22;2136;48.502;9.194;2023-02-02T06:33:53;6.60;83.50
4245;DHT22;2136;48.502;9.194;2023-02-02T06:36:20;6.50;83.70
4245;DHT22;2136;48.502;9.194;2023-02-02T06:38:48;6.50;84.00
4245;DHT22;2136;48.502;9.194;2023-02-02T06:41:15;6.50;84.20
4245;DHT22;2136;48.502;9.194;2023-02-02T06:43:42;6.50;84.50
4245;DHT22;2136;48.502;9.194;2023-02-02T06:46:11;6.40;84.80
4245;DHT22;2136;48.502;9.194;2023-02-02T06:48:38;6.50;85.60
4245;DHT22;2136;48.502;9.194;2023-02-02T06:51:05;6.40;85.80
4245;DHT22;2136;48.502;9.194;2023-02-02T06:53:33;6.50;86.30
4245;DHT22;2136;48.502;9.194;2023-02-02T06:56:03;6.50;86.70
4245;DHT22;2136;48.502;9.194;2023-02-02T06:58:30;6.50;86.50
4245;DHT22;2136;48.502;9.194;2023-02-02T07:01:01;6.40;86.60
4245;DHT22;2136;48.502;9.194;2023-02-02T07:03:31;6.40;87.50
4245;DHT22;2136;48.502;9.194;2023-02-02T07:05:57;6.30;87.80
4245;DHT22;2136;48.502;9.194;2023-02-02T07:08:24;6.40;87.80
4245;DHT22;2136;48.502;9.194;2023-02-02T07:10:51;6.40;87.70
4245;DHT22;2136;48.502;9.194;2023-02-02T07:13:18;6.40;87.70
4245;DHT22;2136;48.502;9.194;2023-02-02T07:15:45;6.40;87.50
4245;DHT22;2136;48.502;9.194;2023-02-02T07:18:13;6.40;87.90
4245;DHT22;2136;48.502;9.194;2023-02-02T07:20:41;6.40;87.60
4245;DHT22;2136;48.502;9.194;2023-02-02T07:23:08;6.50;87.50
4245;DHT22;2136;48.502;9.194;2023-02-02T07:25:34;6.50;87.10
4245;DHT22;2136;48.502;9.194;2023-02-02T07:28:01;6.50;87.30
4245;DHT22;2136;48.502;9.194;2023-02-02T07:30:28;6.50;87.50
4245;DHT22;2136;48.502;9.194;2023-02-02T07:32:55;6.50;86.90
4245;DHT22;2136;48.502;9.194;2023-02-02T07:35:22;6.50;87.10
4245;DHT22;2136;48.502;9.194;2023-02-02T07:37:52;6.50;87.20
4245;DHT22;2136;48.502;9.194;2023-02-02T07:40:19;6.50;87.10
4245;DHT22;2136;48.502;9.194;2023-02-02T07:42:46;6.50;87.20
4245;DHT22;2136;48.502;9.194;2023-02-02T07:45:13;6.50;86.40
4245;DHT22;2136;48.502;9.194;2023-02-02T07:47:40;6.50;86.80
4245;DHT22;2136;48.502;9.194;2023-02-02T07:50:08;6.50;86.30
4245;DHT22;2136;48.502;9.194;2023-02-02T07:52:35;6.60;86.70
4245;DHT22;2136;48.502;9.194;2023-02-02T07:55:03;6.60;85.80
4245;DHT22;2136;48.502;9.194;2023-02-02T07:57:30;6.60;85.60
4245;DHT22;2136;48.502;9.194;2023-02-02T07:59:57;6.60;86.00
4245;DHT22;2136;48.502;9.194;2023-02-02T08:02:24;6.60;86.10
4245;DHT22;2136;48.502;9.194;2023-02-02T08:04:51;6.60;86.20
4245;DHT22;2136;48.502;9.194;2023-02-02T08:07:17;6.70;86.00
4245;DHT22;2136;48.502;9.194;2023-02-02T08:09:45;6.70;86.30
4245;DHT22;2136;48.502;9.194;2023-02-02T08:12:14;6.70;86.30
4245;DHT22;2136;48.502;9.194;2023-02-02T08:14:41;6.70;86.50
4245;DHT22;2136;48.502;9.194;2023-02-02T08:17:08;6.70;86.70
4245;DHT22;2136;48.502;9.194;2023-02-02T08:19:35;6.70;86.20
4245;DHT22;2136;48.502;9.194;2023-02-02T08:22:02;6.80;86.20
4245;DHT22;2136;48.502;9.194;2023-02-02T08:24:28;6.80;86.10
4245;DHT22;2136;48.502;9.194;2023-02-02T08:26:55;6.80;85.80
4245;DHT22;2136;48.502;9.194;2023-02-02T08:29:23;6.80;85.80
4245;DHT22;2136;48.502;9.194;2023-02-02T08:31:50;6.80;86.20
4245;DHT22;2136;48.502;9.194;2023-02-02T08:34:17;6.90;86.20
4245;DHT22;2136;48.502;9.194;2023-02-02T08:36:44;6.90;86.00
4245;DHT22;2136;48.502;9.194;2023-02-02T08:39:12;6.90;85.30
4245;DHT22;2136;48.502;9.194;2023-02-02T08:41:39;6.90;84.50
4245;DHT22;2136;48.502;9.194;2023-02-02T08:44:06;6.90;84.10
4245;DHT22;2136;48.502;9.194;2023-02-02T08:46:35;7.00;84.50
4245;DHT22;2136;48.502;9.194;2023-02-02T08:49:01;7.00;84.80
4245;DHT22;2136;48.502;9.194;2023-02-02T08:51:28;7.00;83.60
4245;DHT22;2136;48.502;9.194;2023-02-02T08:53:55;7.00;83.20
4245;DHT22;2136;48.502;9.194;2023-02-02T08:56:22;7.10;83.50
4245;DHT22;2136;48.502;9.194;2023-02-02T08:58:51;7.10;82.70
4245;DHT22;2136;48.502;9.194;2023-02-02T09:01:20;7.10;81.90
4245;DHT22;2136;48.502;9.194;2023-02-02T09:03:52;7.20;82.20
4245;DHT22;2136;48.502;9.194;2023-02-02T09:06:20;7.20;81.70
4245;DHT22;2136;48.502;9.194;2023-02-02T09:08:47;7.20;81.20
4245;DHT22;2136;48.502;9.194;2023-02-02T09:11:15;7.20;80.30
4245;DHT22;2136;48.502;9.194;2023-02-02T09:13:44;7.30;80.00
4245;DHT22;2136;48.502;9.194;2023-02-02T09:16:13;7.20;79.20
4245;DHT22;2136;48.502;9.194;2023-02-02T09:18:40;7.20;79.80
4245;DHT22;2136;48.502;9.194;2023-02-02T09:21:10;7.20;79.80
4245;DHT22;2136;48.502;9.194;2023-02-02T09:23:40;7.20;79.60
4245;DHT22;2136;48.502;9.194;2023-02-02T09:26:11;7.20;79.80
4245;DHT22;2136;48.502;9.194;2023-02-02T09:28:40;7.20;79.70
4245;DHT22;2136;48.502;9.194;2023-02-02T09:31:07;7.20;79.30
4245;DHT22;2136;48.502;9.194;2023-02-02T09:33:35;7.10;79.90
4245;DHT22;2136;48.502;9.194;2023-02-02T09:36:06;7.10;80.70
4245;DHT22;2136;48.502;9.194;2023-02-02T09:38:35;7.10;81.30
4245;DHT22;2136;48.502;9.194;2023-02-02T09:41:22;7.20;82.10
4245;DHT22;2136;48.502;9.194;2023-02-02T09:43:56;7.20;82.10
4245;DHT22;2136;48.502;9.194;2023-02-02T09:46:39;7.20;82.30
4245;DHT22;2136;48.502;9.194;2023-02-02T09:49:12;7.10;83.50
4245;DHT22;2136;48.502;9.194;2023-02-02T09:51:45;7.20;85.10
4245;DHT22;2136;48.502;9.194;2023-02-02T09:54:18;7.30;85.90
4245;DHT22;2136;48.502;9.194;2023-02-02T09:56:48;7.30;86.20
4245;DHT22;2136;48.502;9.194;2023-02-02T09:59:21;7.30;87.00
4245;DHT22;2136;48.502;9.194;2023-02-02T10:01:52;7.30;87.40
4245;DHT22;2136;48.502;9.194;2023-02-02T10:04:22;7.30;88.20
4245;DHT22;2136;48.502;9.194;2023-02-02T10:06:53;7.30;89.60
4245;DHT22;2136;48.502;9.194;2023-02-02T10:09:30;7.30;90.40
4245;DHT22;2136;48.502;9.194;2023-02-02T10:12:05;7.30;90.80
4245;DHT22;2136;48.502;9.194;2023-02-02T10:14:41;7.30;91.20
4245;DHT22;2136;48.502;9.194;2023-02-02T10:17:35;7.30;91.60
4245;DHT22;2136;48.502;9.194;2023-02-02T10:20:16;7.30;92.20
4245;DHT22;2136;48.502;9.194;2023-02-02T10:22:45;7.30;92.80
4245;DHT22;2136;48.502;9.194;2023-02-02T10:25:15;7.20;93.30
4245;DHT22;2136;48.502;9.194;2023-02-02T10:27:50;7.30;94.20
4245;DHT22;2136;48.502;9.194;2023-02-02T10:30:24;7.40;94.80
4245;DHT22;2136;48.502;9.194;2023-02-02T10:33:01;7.40;94.00
4245;DHT22;2136;48.502;9.194;2023-02-02T10:35:35;7.50;93.60
4245;DHT22;2136;48.502;9.194;2023-02-02T10:38:13;7.40;94.30
4245;DHT22;2136;48.502;9.194;2023-02-02T10:40:52;7.40;94.00
4245;DHT22;2136;48.502;9.194;2023-02-02T10:43:35;7.50;94.20
4245;DHT22;2136;48.502;9.194;2023-02-02T10:46:18;7.50;94.80
4245;DHT22;2136;48.502;9.194;2023-02-02T10:48:48;7.60;95.10
4245;DHT22;2136;48.502;9.194;2023-02-02T10:51:20;7.60;95.30
4245;DHT22;2136;48.502;9.194;2023-02-02T10:53:50;7.80;95.10
4245;DHT22;2136;48.502;9.194;2023-02-02T10:56:21;7.70;93.20
4245;DHT22;2136;48.502;9.194;2023-02-02T10:58:56;7.70;92.90
4245;DHT22;2136;48.502;9.194;2023-02-02T11:01:25;7.70;92.80
4245;DHT22;2136;48.502;9.194;2023-02-02T11:03:52;7.70;92.70
4245;DHT22;2136;48.502;9.194;2023-02-02T11:06:38;7.80;92.90
4245;DHT22;2136;48.502;9.194;2023-02-02T11:09:19;7.90;92.70
4245;DHT22;2136;48.502;9.194;2023-02-02T11:11:50;7.90;91.20
4245;DHT22;2136;48.502;9.194;2023-02-02T11:14:24;7.90;91.00
4245;DHT22;2136;48.502;9.194;2023-02-02T11:17:00;7.80;90.70
4245;DHT22;2136;48.502;9.194;2023-02-02T11:19:29;7.80;90.80
4245;DHT22;2136;48.502;9.194;2023-02-02T11:21:57;7.80;90.70
4245;DHT22;2136;48.502;9.194;2023-02-02T11:24:26;7.70;90.00
4245;DHT22;2136;48.502;9.194;2023-02-02T11:26:58;7.70;90.30
4245;DHT22;2136;48.502;9.194;2023-02-02T11:29:28;7.60;90.60
4245;DHT22;2136;48.502;9.194;2023-02-02T11:31:56;7.60;91.10
4245;DHT22;2136;48.502;9.194;2023-02-02T11:34:25;7.60;90.90
4245;DHT22;2136;48.502;9.194;2023-02-02T11:37:09;7.50;91.20
4245;DHT22;2136;48.502;9.194;2023-02-02T11:39:37;7.60;91.50
4245;DHT22;2136;48.502;9.194;2023-02-02T11:42:07;7.70;91.60
4245;DHT22;2136;48.502;9.194;2023-02-02T11:44:39;7.80;91.30
4245;DHT22;2136;48.502;9.194;2023-02-02T11:47:18;7.90;90.70
4245;DHT22;2136;48.502;9.194;2023-02-02T11:49:46;7.90;89.90
4245;DHT22;2136;48.502;9.194;2023-02-02T11:52:17;7.80;90.30
4245;DHT22;2136;48.502;9.194;2023-02-02T11:54:47;7.80;90.20
4245;DHT22;2136;48.502;9.194;2023-02-02T11:57:18;7.80;90.40
4245;DHT22;2136;48.502;9.194;2023-02-02T11:59:47;7.70;90.20
4245;DHT22;2136;48.502;9.194;2023-02-02T12:02:27;7.70;91.10
4245;DHT22;2136;48.502;9.194;2023-02-02T12:05:11;7.70;91.40
4245;DHT22;2136;48.502;9.194;2023-02-02T12:07:39;7.70;91.60
4245;DHT22;2136;48.502;9.194;2023-02-02T12:10:14;7.70;91.30
4245;DHT22;2136;48.502;9.194;2023-02-02T12:12:50;7.60;91.90
4245;DHT22;2136;48.502;9.194;2023-02-02T12:15:31;7.60;92.70
4245;DHT22;2136;48.502;9.194;2023-02-02T12:18:06;7.60;93.20
4245;DHT22;2136;48.502;9.194;2023-02-02T12:20:46;7.60;93.90
4245;DHT22;2136;48.502;9.194;2023-02-02T12:23:36;7.70;93.90
4245;DHT22;2136;48.502;9.194;2023-02-02T12:26:16;7.70;94.00
4245;DHT22;2136;48.502;9.194;2023-02-02T12:28:59;7.60;94.80
4245;DHT22;2136;48.502;9.194;2023-02-02T12:31:36;7.60;95.00
4245;DHT22;2136;48.502;9.194;2023-02-02T12:34:13;7.50;94.80
4245;DHT22;2136;48.502;9.194;2023-02-02T12:36:49;7.50;95.50
4245;DHT22;2136;48.502;9.194;2023-02-02T12:39:30;7.50;96.00
4245;DHT22;2136;48.502;9.194;2023-02-02T12:42:25;7.50;96.90
4245;DHT22;2136;48.502;9.194;2023-02-02T12:45:26;7.50;96.40
4245;DHT22;2136;48.502;9.194;2023-02-02T12:48:11;7.40;96.30
4245;DHT22;2136;48.502;9.194;2023-02-02T12:50:47;7.40;97.50
4245;DHT22;2136;48.502;9.194;2023-02-02T12:53:43;7.50;97.30
4245;DHT22;2136;48.502;9.194;2023-02-02T12:56:23;7.50;97.50
4245;DHT22;2136;48.502;9.194;2023-02-02T12:59:00;7.50;98.10
4245;DHT22;2136;48.502;9.194;2023-02-02T13:01:51;7.60;99.00
4245;DHT22;2136;48.502;9.194;2023-02-02T13:04:36;7.70;98.70
4245;DHT22;2136;48.502;9.194;2023-02-02T13:07:24;7.70;98.50
4245;DHT22;2136;48.502;9.194;2023-02-02T13:10:04;7.80;97.70
4245;DHT22;2136;48.502;9.194;2023-02-02T13:12:36;7.70;95.70
4245;DHT22;2136;48.502;9.194;2023-02-02T13:15:07;7.80;96.10
4245;DHT22;2136;48.502;9.194;2023-02-02T13:17:40;7.70;95.80
4245;DHT22;2136;48.502;9.194;2023-02-02T13:20:20;7.60;95.40
4245;DHT22;2136;48.502;9.194;2023-02-02T13:22:52;7.70;96.50
4245;DHT22;2136;48.502;9.194;2023-02-02T13:25:25;7.70;96.90
4245;DHT22;2136;48.502;9.194;2023-02-02T13:27:53;7.60;96.30
4245;DHT22;2136;48.502;9.194;2023-02-02T13:30:30;7.60;95.80
4245;DHT22;2136;48.502;9.194;2023-02-02T13:33:04;7.60;95.60
4245;DHT22;2136;48.502;9.194;2023-02-02T13:35:35;7.50;96.00
4245;DHT22;2136;48.502;9.194;2023-02-02T13:38:11;7.70;96.50
4245;DHT22;2136;48.502;9.194;2023-02-02T13:40:42;7.50;96.60
4245;DHT22;2136;48.502;9.194;2023-02-02T13:43:21;7.60;97.30
4245;DHT22;2136;48.502;9.194;2023-02-02T13:46:00;7.70;96.70
4245;DHT22;2136;48.502;9.194;2023-02-02T13:48:34;7.60;95.80
4245;DHT22;2136;48.502;9.194;2023-02-02T13:51:24;7.50;94.40
4245;DHT22;2136;48.502;9.194;2023-02-02T13:54:05;7.60;94.50
4245;DHT22;2136;48.502;9.194;2023-02-02T13:56:38;7.50;94.30
4245;DHT22;2136;48.502;9.194;2023-02-02T13:59:29;7.50;93.90
4245;DHT22;2136;48.502;9.194;2023-02-02T14:02:01;7.50;94.30
4245;DHT22;2136;48.502;9.194;2023-02-02T14:04:33;7.40;94.20
4245;DHT22;2136;48.502;9.194;2023-02-02T14:07:03;7.30;93.00
4245;DHT22;2136;48.502;9.194;2023-02-02T14:09:32;7.30;93.10
4245;DHT22;2136;48.502;9.194;2023-02-02T14:12:02;7.30;93.10
4245;DHT22;2136;48.502;9.194;2023-02-02T14:14:31;7.20;93.20
4245;DHT22;2136;48.502;9.194;2023-02-02T14:16:58;7.30;93.10
4245;DHT22;2136;48.502;9.194;2023-02-02T14:19:53;7.50;93.30
4245;DHT22;2136;48.502;9.194;2023-02-02T14:22:37;7.30;92.60
4245;DHT22;2136;48.502;9.194;2023-02-02T14:28:09;7.30;92.40
4245;DHT22;2136;48.502;9.194;2023-02-02T14:30:37;7.30;92.50
4245;DHT22;2136;48.502;9.194;2023-02-02T14:33:38;7.30;92.20
4245;DHT22;2136;48.502;9.194;2023-02-02T14:36:14;7.30;92.00
4245;DHT22;2136;48.502;9.194;2023-02-02T14:39:05;7.30;92.00
4245;DHT22;2136;48.502;9.194;2023-02-02T14:42:03;7.30;91.10
4245;DHT22;2136;48.502;9.194;2023-02-02T14:45:15;7.30;90.70
4245;DHT22;2136;48.502;9.194;2023-02-02T14:47:49;7.30;90.90
4245;DHT22;2136;48.502;9.194;2023-02-02T14:50:23;7.30;90.60
4245;DHT22;2136;48.502;9.194;2023-02-02T14:53:00;7.40;90.50
4245;DHT22;2136;48.502;9.194;2023-02-02T14:55:28;7.40;90.50
4245;DHT22;2136;48.502;9.194;2023-02-02T14:57:57;7.40;90.50
4245;DHT22;2136;48.502;9.194;2023-02-02T15:00:27;7.50;90.30
4245;DHT22;2136;48.502;9.194;2023-02-02T15:02:55;7.50;89.40
4245;DHT22;2136;48.502;9.194;2023-02-02T15:05:43;7.50;88.40
4245;DHT22;2136;48.502;9.194;2023-02-02T15:08:23;7.50;88.30
4245;DHT22;2136;48.502;9.194;2023-02-02T15:11:05;7.50;87.40
4245;DHT22;2136;48.502;9.194;2023-02-02T15:13:53;7.50;87.40
4245;DHT22;2136;48.502;9.194;2023-02-02T15:16:26;7.50;87.10
4245;DHT22;2136;48.502;9.194;2023-02-02T15:19:02;7.50;87.70
4245;DHT22;2136;48.502;9.194;2023-02-02T15:21:31;7.50;88.00
4245;DHT22;2136;48.502;9.194;2023-02-02T15:24:04;7.50;87.00
4245;DHT22;2136;48.502;9.194;2023-02-02T15:26:34;7.50;86.70
4245;DHT22;2136;48.502;9.194;2023-02-02T15:29:07;7.50;86.70
4245;DHT22;2136;48.502;9.194;2023-02-02T15:31:42;7.50;87.00
4245;DHT22;2136;48.502;9.194;2023-02-02T15:34:15;7.50;86.90
4245;DHT22;2136;48.502;9.194;2023-02-02T15:36:46;7.50;87.00
4245;DHT22;2136;48.502;9.194;2023-02-02T15:39:24;7.40;86.90
4245;DHT22;2136;48.502;9.194;2023-02-02T15:41:52;7.50;87.40
4245;DHT22;2136;48.502;9.194;2023-02-02T15:44:39;7.40;86.90
4245;DHT22;2136;48.502;9.194;2023-02-02T15:47:10;7.40;87.10
4245;DHT22;2136;48.502;9.194;2023-02-02T15:49:38;7.40;87.80
4245;DHT22;2136;48.502;9.194;2023-02-02T15:52:11;7.40;88.10
4245;DHT22;2136;48.502;9.194;2023-02-02T15:54:49;7.30;88.20
4245;DHT22;2136;48.502;9.194;2023-02-02T15:57:29;7.40;89.10
4245;DHT22;2136;48.502;9.194;2023-02-02T15:59:56;7.20;89.30
4245;DHT22;2136;48.502;9.194;2023-02-02T16:02:30;7.20;89.70
4245;DHT22;2136;48.502;9.194;2023-02-02T16:04:58;7.20;89.70
4245;DHT22;2136;48.502;9.194;2023-02-02T16:07:28;7.20;89.90
4245;DHT22;2136;48.502;9.194;2023-02-02T16:10:02;7.20;90.40
4245;DHT22;2136;48.502;9.194;2023-02-02T16:12:30;7.30;90.10
4245;DHT22;2136;48.502;9.194;2023-02-02T16:14:57;7.30;89.40
4245;DHT22;2136;48.502;9.194;2023-02-02T16:17:27;7.30;89.40
4245;DHT22;2136;48.502;9.194;2023-02-02T16:19:59;7.40;89.30
4245;DHT22;2136;48.502;9.194;2023-02-02T16:22:27;7.30;89.30
4245;DHT22;2136;48.502;9.194;2023-02-02T16:24:58;7.40;88.70
4245;DHT22;2136;48.502;9.194;2023-02-02T16:27:29;7.40;88.50
4245;DHT22;2136;48.502;9.194;2023-02-02T16:29:59;7.40;88.50
4245;DHT22;2136;48.502;9.194;2023-02-02T16:32:29;7.40;88.70
4245;DHT22;2136;48.502;9.194;2023-02-02T16:34:57;7.40;88.40
4245;DHT22;2136;48.502;9.194;2023-02-02T16:37:25;7.40;88.20
4245;DHT22;2136;48.502;9.194;2023-02-02T16:39:54;7.40;88.00
4245;DHT22;2136;48.502;9.194;2023-02-02T16:42:23;7.40;88.20
4245;DHT22;2136;48.502;9.194;2023-02-02T16:44:52;7.30;88.20
4245;DHT22;2136;48.502;9.194;2023-02-02T16:47:38;7.30;89.10
4245;DHT22;2136;48.502;9.194;2023-02-02T16:50:26;7.30;88.70
4245;DHT22;2136;48.502;9.194;2023-02-02T16:52:56;7.30;88.80
4245;DHT22;2136;48.502;9.194;2023-02-02T16:55:25;7.30;88.90
4245;DHT22;2136;48.502;9.194;2023-02-02T16:57:54;7.40;89.00